Preview of NWS' New Version of Forecast
This preview is not operational and should not be used for support decisions.

Terminal Aerodrome Forecast (TAF)

Issued by National Weather Service (NWS)

                            
000
FTUS42 KCAE 180233 AAA
TAFOGB
TAF AMD
KOGB 180233Z 1803/1824 VRB02KT P6SM FEW150
     FM180900 VRB02KT 4SM BR BKN008
     FM181400 26005KT P6SM SCT015 BKN030
     FM181600 19005KT P6SM SCT050=